createdAt,value
2018-03-24T00:00:03.339Z,34.67
2018-03-24T00:02:32.065Z,35.47
2018-03-24T00:05:00.626Z,37.07
2018-03-24T00:07:29.046Z,38.83
2018-03-24T00:09:57.714Z,32.00
2018-03-24T00:12:26.200Z,29.97
2018-03-24T00:14:54.602Z,35.00
2018-03-24T00:17:23.007Z,34.87
2018-03-24T00:19:51.709Z,33.35
2018-03-24T00:22:21.085Z,33.50
2018-03-24T00:24:49.760Z,36.57
2018-03-24T00:27:18.180Z,44.20
2018-03-24T00:29:46.866Z,31.30
2018-03-24T00:32:16.158Z,36.43
2018-03-24T00:34:44.536Z,36.13
2018-03-24T00:37:13.216Z,35.23
2018-03-24T00:39:41.648Z,38.83
2018-03-24T00:42:10.754Z,41.43
2018-03-24T00:44:39.212Z,36.20
2018-03-24T00:47:08.669Z,41.33
2018-03-24T00:49:37.578Z,42.47
2018-03-24T00:52:06.941Z,37.83
2018-03-24T00:54:35.518Z,38.93
2018-03-24T00:57:04.047Z,42.40
2018-03-24T00:59:33.205Z,38.23
2018-03-24T01:02:01.697Z,37.37
2018-03-24T01:04:30.726Z,40.30
2018-03-24T01:06:59.766Z,38.60
2018-03-24T01:09:28.479Z,48.47
2018-03-24T01:11:58.395Z,40.93
2018-03-24T01:14:26.792Z,44.67
2018-03-24T01:16:55.502Z,50.73
2018-03-24T01:19:24.945Z,50.00
2018-03-24T01:21:53.607Z,51.45
2018-03-24T01:24:22.888Z,43.00
2018-03-24T01:26:51.385Z,42.17
2018-03-24T01:29:19.927Z,40.17
2018-03-24T01:31:48.577Z,46.30
2018-03-24T01:34:17.136Z,45.88
2018-03-24T01:36:45.542Z,45.83
2018-03-24T01:39:14.115Z,49.10
2018-03-24T01:41:42.610Z,50.33
2018-03-24T01:44:11.282Z,45.35
2018-03-24T01:46:39.946Z,42.45
2018-03-24T01:49:08.424Z,49.13
2018-03-24T01:51:36.824Z,50.80
2018-03-24T01:54:05.711Z,51.78
2018-03-24T01:56:34.107Z,51.20
2018-03-24T01:59:02.766Z,52.80
2018-03-24T02:01:30.822Z,50.80
2018-03-24T02:03:59.332Z,50.17
2018-03-24T02:06:27.725Z,51.67
2018-03-24T02:08:56.382Z,48.53
2018-03-24T02:11:24.782Z,52.70
2018-03-24T02:13:53.822Z,46.47
2018-03-24T02:16:22.265Z,52.90
2018-03-24T02:18:50.748Z,52.83
2018-03-24T02:21:22.051Z,52.60
2018-03-24T02:23:50.548Z,45.37
2018-03-24T02:26:18.759Z,59.17
2018-03-24T02:28:47.907Z,57.37
2018-03-24T02:31:17.089Z,58.70
2018-03-24T02:33:45.689Z,53.63
2018-03-24T02:36:14.446Z,56.75
2018-03-24T02:38:43.130Z,52.03
2018-03-24T02:41:11.301Z,50.10
2018-03-24T02:43:40.750Z,62.70
2018-03-24T02:46:08.815Z,52.40
2018-03-24T02:48:38.100Z,57.60
2018-03-24T02:51:07.555Z,47.10
2018-03-24T02:53:36.708Z,58.07
2018-03-24T02:56:05.099Z,66.70
2018-03-24T02:58:34.350Z,57.83
2018-03-24T03:01:02.752Z,50.53
2018-03-24T03:03:31.143Z,57.00
2018-03-24T03:05:59.634Z,54.43
2018-03-24T03:08:28.450Z,61.08
2018-03-24T03:10:57.604Z,60.23
2018-03-24T03:13:27.037Z,61.47
2018-03-24T03:15:56.191Z,52.43
2018-03-24T03:18:24.851Z,50.20
2018-03-24T03:20:53.327Z,56.43
2018-03-24T03:23:21.830Z,54.33
2018-03-24T03:25:50.527Z,57.60
2018-03-24T03:28:18.848Z,62.87
2018-03-24T03:33:49.407Z,56.67
2018-03-24T03:36:17.795Z,56.23
2018-03-24T03:38:46.478Z,72.00
2018-03-24T03:41:15.187Z,58.92
2018-03-24T03:43:43.947Z,58.22
2018-03-24T03:46:12.658Z,62.43
2018-03-24T03:48:41.371Z,66.15
2018-03-24T03:51:09.751Z,57.17
2018-03-24T03:53:38.782Z,66.43
2018-03-24T03:56:08.729Z,63.85
2018-03-24T03:58:37.294Z,66.47
2018-03-24T04:01:05.694Z,64.27
2018-03-24T04:03:34.354Z,71.18
2018-03-24T04:06:03.793Z,66.60
2018-03-24T04:08:32.186Z,64.30
2018-03-24T04:11:00.800Z,65.70
2018-03-24T04:13:29.946Z,56.00
2018-03-24T04:15:58.601Z,55.83
2018-03-24T04:18:27.302Z,59.30
2018-03-24T04:20:55.787Z,57.83
2018-03-24T04:23:24.454Z,56.50
2018-03-24T04:25:52.842Z,57.83
2018-03-24T04:28:21.543Z,56.00
2018-03-24T04:30:49.934Z,55.87
2018-03-24T04:33:18.598Z,61.85
2018-03-24T04:35:46.988Z,56.57
2018-03-24T04:38:15.375Z,62.80
2018-03-24T04:40:43.787Z,63.80
2018-03-24T04:43:12.952Z,69.17
2018-03-24T04:45:41.619Z,61.70
2018-03-24T04:48:10.024Z,57.23
2018-03-24T04:50:39.386Z,69.03
2018-03-24T04:53:08.853Z,81.10
2018-03-24T04:55:37.745Z,61.88
2018-03-24T04:58:06.423Z,68.68
2018-03-24T05:00:35.083Z,63.17
2018-03-24T05:03:03.482Z,70.93
2018-03-24T05:05:32.946Z,67.90
2018-03-24T05:08:01.807Z,62.90
2018-03-24T05:10:31.247Z,66.67
2018-03-24T05:12:59.839Z,73.37
2018-03-24T05:15:28.555Z,57.47
2018-03-24T05:17:58.025Z,67.60
2018-03-24T05:20:26.987Z,68.00
2018-03-24T05:22:56.741Z,68.03
2018-03-24T05:25:27.251Z,65.40
2018-03-24T05:27:56.127Z,84.10
2018-03-24T05:30:25.143Z,78.05
2018-03-24T05:32:53.539Z,96.60
2018-03-24T05:35:22.695Z,72.40
2018-03-24T05:37:51.347Z,79.47
2018-03-24T05:40:19.755Z,72.53
2018-03-24T05:42:48.143Z,78.97
2018-03-24T05:45:17.347Z,85.97
2018-03-24T05:47:45.760Z,86.80
2018-03-24T05:50:15.228Z,81.40
2018-03-24T05:52:43.773Z,74.93
2018-03-24T05:55:13.823Z,81.10
2018-03-24T05:57:42.499Z,76.13
2018-03-24T06:00:10.715Z,77.07
2018-03-24T06:02:40.087Z,65.13
2018-03-24T06:05:08.482Z,63.80
2018-03-24T06:07:37.330Z,62.40
2018-03-24T06:10:06.446Z,63.33
2018-03-24T06:12:35.335Z,70.82
2018-03-24T06:15:03.935Z,52.30
2018-03-24T06:17:32.595Z,58.60
2018-03-24T06:20:01.263Z,56.80
2018-03-24T06:22:29.688Z,62.70
2018-03-24T06:24:58.881Z,63.80
2018-03-24T06:27:27.406Z,50.00
2018-03-24T06:29:55.758Z,45.77
2018-03-24T06:32:24.020Z,48.27
2018-03-24T06:34:52.976Z,45.40
2018-03-24T06:37:21.649Z,46.50
2018-03-24T06:39:50.356Z,40.05
2018-03-24T06:42:19.791Z,35.23
2018-03-24T06:44:48.576Z,35.13
2018-03-24T06:47:18.236Z,40.75
2018-03-24T06:49:46.649Z,38.00
2018-03-24T06:52:15.302Z,30.67
2018-03-24T06:54:43.692Z,38.30
2018-03-24T06:57:12.129Z,29.13
2018-03-24T06:59:41.549Z,30.10
2018-03-24T07:02:11.079Z,28.40
2018-03-24T07:04:39.738Z,28.05
2018-03-24T07:07:08.411Z,28.92
2018-03-24T07:09:37.887Z,31.05
2018-03-24T07:12:06.563Z,29.90
2018-03-24T07:14:35.231Z,29.50
2018-03-24T07:17:03.897Z,31.33
2018-03-24T07:19:32.604Z,28.87
2018-03-24T07:22:01.343Z,25.40
2018-03-24T07:24:30.639Z,26.70
2018-03-24T07:26:59.271Z,30.53
2018-03-24T07:29:27.952Z,29.67
2018-03-24T07:31:56.448Z,28.90
2018-03-24T07:34:25.939Z,27.50
2018-03-24T07:36:55.843Z,28.97
2018-03-24T07:39:24.291Z,32.93
2018-03-24T07:41:53.743Z,28.55
2018-03-24T07:44:23.215Z,27.10
2018-03-24T07:46:51.871Z,26.77
2018-03-24T07:49:21.475Z,25.77
2018-03-24T07:51:49.989Z,25.93
2018-03-24T07:54:18.395Z,27.80
2018-03-24T07:56:47.061Z,29.03
2018-03-24T07:59:15.483Z,27.23
2018-03-24T08:01:44.137Z,23.33
2018-03-24T08:04:12.685Z,28.90
2018-03-24T08:06:42.197Z,29.07
2018-03-24T08:09:11.442Z,24.83
2018-03-24T08:11:40.606Z,23.73
2018-03-24T08:14:09.014Z,26.80
2018-03-24T08:16:37.678Z,26.45
2018-03-24T08:19:06.150Z,23.23
2018-03-24T08:21:34.538Z,22.13
2018-03-24T08:24:03.309Z,27.27
2018-03-24T08:26:31.706Z,28.40
2018-03-24T08:29:00.979Z,30.30
2018-03-24T08:31:29.659Z,28.83
2018-03-24T08:33:58.086Z,25.67
2018-03-24T08:36:26.754Z,23.70
2018-03-24T08:38:55.435Z,27.93
2018-03-24T08:41:23.487Z,28.90
2018-03-24T08:43:51.884Z,30.77
2018-03-24T08:46:20.614Z,35.70
2018-03-24T08:48:49.008Z,35.60
2018-03-24T08:51:17.419Z,32.53
2018-03-24T08:53:45.991Z,26.97
2018-03-24T08:56:14.507Z,29.97
2018-03-24T08:58:42.975Z,35.73
2018-03-24T09:01:11.689Z,35.42
2018-03-24T09:03:40.089Z,29.60
2018-03-24T09:06:08.799Z,34.33
2018-03-24T09:08:37.195Z,35.70
2018-03-24T09:11:05.583Z,28.60
2018-03-24T09:13:34.135Z,26.70
2018-03-24T09:16:02.762Z,35.30
2018-03-24T09:18:31.935Z,28.20
2018-03-24T09:21:00.447Z,29.43
2018-03-24T09:23:29.614Z,26.73
2018-03-24T09:25:59.081Z,22.10
2018-03-24T09:28:27.533Z,26.30
2018-03-24T09:30:56.020Z,26.90
2018-03-24T09:33:24.474Z,26.30
2018-03-24T09:35:53.150Z,21.47
2018-03-24T09:38:21.778Z,24.23
2018-03-24T09:40:50.304Z,23.20
2018-03-24T09:43:18.764Z,16.80
2018-03-24T09:45:47.200Z,22.77
2018-03-24T09:48:16.368Z,18.23
2018-03-24T09:50:44.838Z,20.10
2018-03-24T09:53:14.254Z,16.50
2018-03-24T09:55:43.444Z,19.87
2018-03-24T09:58:14.831Z,16.80
2018-03-24T10:00:43.272Z,15.30
2018-03-24T10:03:11.768Z,20.10
2018-03-24T10:05:40.366Z,21.20
2018-03-24T10:08:09.518Z,19.43
2018-03-24T10:10:37.920Z,18.37
2018-03-24T10:13:06.474Z,18.03
2018-03-24T10:15:35.156Z,16.37
2018-03-24T10:18:03.715Z,19.73
2018-03-24T10:23:49.430Z,16.53
2018-03-24T10:26:17.150Z,19.80
2018-03-24T10:28:45.478Z,18.52
2018-03-24T10:31:13.902Z,18.93
2018-03-24T10:33:48.457Z,18.90
2018-03-24T10:36:16.664Z,16.70
2018-03-24T10:38:45.323Z,22.80
2018-03-24T10:41:13.707Z,20.97
2018-03-24T10:43:42.151Z,25.07
2018-03-24T10:46:10.754Z,20.77
2018-03-24T10:48:39.218Z,17.87
2018-03-24T10:51:07.830Z,18.10
2018-03-24T10:53:36.210Z,22.20
2018-03-24T10:56:04.399Z,21.80
2018-03-24T10:58:32.786Z,25.70
2018-03-24T11:04:04.374Z,18.92
2018-03-24T11:06:33.499Z,18.77
2018-03-24T11:09:02.063Z,20.73
2018-03-24T11:11:30.547Z,19.80
2018-03-24T11:13:59.810Z,18.93
2018-03-24T11:16:28.267Z,19.30
2018-03-24T11:18:56.960Z,18.77
2018-03-24T11:21:25.370Z,18.70
2018-03-24T11:23:54.108Z,19.23
2018-03-24T11:26:23.196Z,20.00
2018-03-24T11:28:51.851Z,20.23
2018-03-24T11:31:20.339Z,18.97
2018-03-24T11:33:49.283Z,21.52
2018-03-24T11:36:18.479Z,21.33
2018-03-24T11:38:46.866Z,23.73
2018-03-24T11:41:15.262Z,24.60
2018-03-24T11:43:43.756Z,19.77
2018-03-24T11:46:13.002Z,20.13
2018-03-24T11:48:41.398Z,22.77
2018-03-24T11:51:09.844Z,22.10
2018-03-24T11:53:48.173Z,23.02
2018-03-24T11:56:16.875Z,20.50
2018-03-24T11:58:46.476Z,20.93
2018-03-24T12:01:15.065Z,18.60
2018-03-24T12:03:43.733Z,19.25
2018-03-24T12:06:12.119Z,23.60
2018-03-24T12:08:40.822Z,22.55
2018-03-24T12:11:09.471Z,21.37
2018-03-24T12:13:37.931Z,20.77
2018-03-24T12:16:06.460Z,18.87
2018-03-24T12:18:35.164Z,22.93
2018-03-24T12:21:03.210Z,24.30
2018-03-24T12:23:31.606Z,21.90
2018-03-24T12:25:59.998Z,18.03
2018-03-24T12:28:28.678Z,21.73
2018-03-24T12:30:57.346Z,20.30
2018-03-24T12:33:26.029Z,22.90
2018-03-24T12:35:55.321Z,22.77
2018-03-24T12:38:23.722Z,22.00
2018-03-24T12:40:52.436Z,17.23
2018-03-24T12:43:20.781Z,21.42
2018-03-24T12:45:49.950Z,21.33
2018-03-24T12:48:18.371Z,19.87
2018-03-24T12:50:47.790Z,19.90
2018-03-24T12:53:16.308Z,18.60
2018-03-24T12:55:44.700Z,20.77
2018-03-24T12:58:13.245Z,21.83
2018-03-24T13:00:41.972Z,21.63
2018-03-24T13:03:10.410Z,17.43
2018-03-24T13:05:38.815Z,22.23
2018-03-24T13:08:07.319Z,18.87
2018-03-24T13:10:35.711Z,18.33
2018-03-24T13:13:04.111Z,19.40
2018-03-24T13:15:32.862Z,19.60
2018-03-24T13:18:02.259Z,21.37
2018-03-24T13:20:31.646Z,22.13
2018-03-24T13:23:00.085Z,22.43
2018-03-24T13:25:28.686Z,18.53
2018-03-24T13:27:57.059Z,21.60
2018-03-24T13:30:25.483Z,17.70
2018-03-24T13:32:54.063Z,20.47
2018-03-24T13:35:23.213Z,20.80
2018-03-24T13:37:52.642Z,22.10
2018-03-24T13:40:21.391Z,20.95
2018-03-24T13:42:49.774Z,22.50
2018-03-24T13:45:18.182Z,22.87
2018-03-24T13:47:46.740Z,22.10
2018-03-24T13:50:15.130Z,22.47
2018-03-24T13:52:43.510Z,21.80
2018-03-24T13:55:11.988Z,19.07
2018-03-24T13:57:40.489Z,22.03
2018-03-24T14:00:08.805Z,19.73
2018-03-24T14:02:37.449Z,22.07
2018-03-24T14:05:05.177Z,25.53
2018-03-24T14:07:33.747Z,23.90
2018-03-24T14:10:02.147Z,23.97
2018-03-24T14:12:30.594Z,24.37
2018-03-24T14:14:59.747Z,32.53
2018-03-24T14:17:28.210Z,24.87
2018-03-24T14:19:56.605Z,26.50
2018-03-24T14:22:25.002Z,25.30
2018-03-24T14:24:53.411Z,31.00
2018-03-24T14:27:21.908Z,24.23
2018-03-24T14:29:50.726Z,25.88
2018-03-24T14:32:19.722Z,23.30
2018-03-24T14:34:48.107Z,25.77
2018-03-24T14:37:16.578Z,25.20
2018-03-24T14:39:45.262Z,21.20
2018-03-24T14:42:14.116Z,25.17
2018-03-24T14:44:43.092Z,29.43
2018-03-24T14:47:11.773Z,26.30
2018-03-24T14:49:40.926Z,27.70
2018-03-24T14:52:09.678Z,31.83
2018-03-24T14:54:38.147Z,24.43
2018-03-24T14:57:06.877Z,22.90
2018-03-24T15:02:38.675Z,26.20
2018-03-24T15:05:07.315Z,26.77
2018-03-24T15:07:36.735Z,22.47
2018-03-24T15:10:04.543Z,24.90
2018-03-24T15:12:33.264Z,23.87
2018-03-24T15:15:02.563Z,26.00
2018-03-24T15:17:31.226Z,23.42
2018-03-24T15:19:59.620Z,26.93
2018-03-24T15:22:28.589Z,28.20
2018-03-24T15:24:57.806Z,26.52
2018-03-24T15:27:26.656Z,27.17
2018-03-24T15:30:06.442Z,26.37
2018-03-24T15:35:32.508Z,24.90
2018-03-24T15:38:00.583Z,25.23
2018-03-24T15:40:29.038Z,25.30
2018-03-24T15:42:57.171Z,23.53
2018-03-24T15:45:25.662Z,28.17
2018-03-24T15:47:54.054Z,24.77
2018-03-24T15:50:22.722Z,26.60
2018-03-24T15:52:51.276Z,26.70
2018-03-24T15:55:19.836Z,26.77
2018-03-24T15:57:48.500Z,27.60
2018-03-24T16:00:16.898Z,27.50
2018-03-24T16:02:45.572Z,25.57
2018-03-24T16:05:14.393Z,25.00
2018-03-24T16:07:42.845Z,30.00
2018-03-24T16:10:11.592Z,27.37
2018-03-24T16:12:41.075Z,24.77
2018-03-24T16:15:10.373Z,29.23
2018-03-24T16:17:39.035Z,28.73
2018-03-24T16:20:07.551Z,31.43
2018-03-24T16:22:36.256Z,25.80
2018-03-24T16:25:04.826Z,29.80
2018-03-24T16:27:34.375Z,28.33
2018-03-24T16:30:02.807Z,32.33
2018-03-24T16:32:31.247Z,30.73
2018-03-24T16:34:59.943Z,29.17
2018-03-24T16:37:28.617Z,28.30
2018-03-24T16:39:57.058Z,33.80
2018-03-24T16:42:25.443Z,30.53
2018-03-24T16:44:53.914Z,26.20
2018-03-24T16:47:23.327Z,27.37
2018-03-24T16:49:51.718Z,31.63
2018-03-24T16:52:20.103Z,28.37
2018-03-24T16:54:48.498Z,31.63
2018-03-24T16:57:18.022Z,32.10
2018-03-24T16:59:46.467Z,30.70
2018-03-24T17:02:15.029Z,31.13
2018-03-24T17:04:43.580Z,32.57
2018-03-24T17:07:12.492Z,26.40
2018-03-24T17:09:40.922Z,34.67
2018-03-24T17:12:10.868Z,27.33
2018-03-24T17:14:39.372Z,33.47
2018-03-24T17:17:07.781Z,30.00
2018-03-24T17:19:36.356Z,27.20
2018-03-24T17:22:04.756Z,27.60
2018-03-24T17:24:33.537Z,33.72
2018-03-24T17:27:02.176Z,29.73
2018-03-24T17:29:30.608Z,30.47
2018-03-24T17:31:59.111Z,30.57
2018-03-24T17:34:28.601Z,28.30
2018-03-24T17:36:56.995Z,29.40
2018-03-24T17:39:25.707Z,32.87
2018-03-24T17:41:54.175Z,26.93
2018-03-24T17:44:22.972Z,26.93
2018-03-24T17:46:51.888Z,34.33
2018-03-24T17:49:20.521Z,34.40
2018-03-24T17:51:49.011Z,34.27
2018-03-24T17:54:17.435Z,29.87
2018-03-24T17:56:45.998Z,30.00
2018-03-24T17:59:14.407Z,32.60
2018-03-24T18:01:43.071Z,31.65
2018-03-24T18:04:11.861Z,29.77
2018-03-24T18:06:40.607Z,28.33
2018-03-24T18:09:09.897Z,28.37
2018-03-24T18:11:38.401Z,31.00
2018-03-24T18:14:07.188Z,29.10
2018-03-24T18:16:36.648Z,30.17
2018-03-24T18:19:05.203Z,27.73
2018-03-24T18:21:33.355Z,29.10
2018-03-24T18:24:02.246Z,28.55
2018-03-24T18:26:30.880Z,33.27
2018-03-24T18:28:59.273Z,28.03
2018-03-24T18:31:27.685Z,24.80
2018-03-24T18:33:56.679Z,30.70
2018-03-24T18:36:25.506Z,32.55
2018-03-24T18:38:54.686Z,24.57
2018-03-24T18:41:23.563Z,23.73
2018-03-24T18:43:52.106Z,26.93
2018-03-24T18:46:21.588Z,26.47
2018-03-24T18:48:50.308Z,25.45
2018-03-24T18:51:18.692Z,27.50
2018-03-24T18:53:47.381Z,24.37
2018-03-24T18:56:16.059Z,26.95
2018-03-24T18:58:44.529Z,25.07
2018-03-24T19:01:13.052Z,25.63
2018-03-24T19:03:41.815Z,32.40
2018-03-24T19:06:11.115Z,28.50
2018-03-24T19:08:39.825Z,29.90
2018-03-24T19:11:09.405Z,30.20
2018-03-24T19:13:38.890Z,30.55
2018-03-24T19:16:07.323Z,25.30
2018-03-24T19:18:36.046Z,29.23
2018-03-24T19:21:05.734Z,25.12
2018-03-24T19:23:34.255Z,25.10
2018-03-24T19:26:03.024Z,28.10
2018-03-24T19:28:31.723Z,28.48
2018-03-24T19:31:00.131Z,24.60
2018-03-24T19:33:29.725Z,24.20
2018-03-24T19:35:58.349Z,26.50
2018-03-24T19:38:27.554Z,28.73
2018-03-24T19:40:56.239Z,30.00
2018-03-24T19:43:24.635Z,28.10
2018-03-24T19:45:54.251Z,26.65
2018-03-24T19:48:22.709Z,28.43
2018-03-24T19:50:51.452Z,29.03
2018-03-24T19:53:19.933Z,31.47
2018-03-24T19:55:48.653Z,28.25
2018-03-24T19:58:17.323Z,29.97
2018-03-24T20:00:46.193Z,29.20
2018-03-24T20:03:15.428Z,28.55
2018-03-24T20:05:45.055Z,26.43
2018-03-24T20:08:13.632Z,29.13
2018-03-24T20:10:42.266Z,33.37
2018-03-24T20:13:11.898Z,29.00
2018-03-24T20:15:40.836Z,38.00
2018-03-24T20:18:09.455Z,27.55
2018-03-24T20:20:38.496Z,33.80
2018-03-24T20:23:06.910Z,27.37
2018-03-24T20:25:35.290Z,34.20
2018-03-24T20:28:03.686Z,31.80
2018-03-24T20:30:32.081Z,27.90
2018-03-24T20:33:00.630Z,31.10
2018-03-24T20:35:29.290Z,30.08
2018-03-24T20:37:57.686Z,27.67
2018-03-24T20:40:26.070Z,29.13
2018-03-24T20:42:54.738Z,32.42
2018-03-24T20:45:23.314Z,29.05
2018-03-24T20:47:51.951Z,31.60
2018-03-24T20:50:20.610Z,28.63
2018-03-24T20:52:48.985Z,29.23
2018-03-24T20:55:17.655Z,27.77
2018-03-24T20:57:46.042Z,28.77
2018-03-24T21:00:14.845Z,27.27
2018-03-24T21:02:44.193Z,31.50
2018-03-24T21:05:13.643Z,31.12
2018-03-24T21:07:42.334Z,35.25
2018-03-24T21:10:10.921Z,40.10
2018-03-24T21:12:39.467Z,31.10
2018-03-24T21:15:07.186Z,34.00
2018-03-24T21:17:35.567Z,37.57
2018-03-24T21:20:03.910Z,31.52
2018-03-24T21:22:32.503Z,34.83
2018-03-24T21:25:01.662Z,39.27
2018-03-24T21:27:30.530Z,37.20
2018-03-24T21:29:59.219Z,41.87
2018-03-24T21:32:27.594Z,33.30
2018-03-24T21:34:55.982Z,26.83
2018-03-24T21:37:24.370Z,31.40
2018-03-24T21:39:53.008Z,38.77
2018-03-24T21:42:21.658Z,32.80
2018-03-24T21:44:50.059Z,30.90
2018-03-24T21:47:19.208Z,38.10
2018-03-24T21:49:47.646Z,34.93
2018-03-24T21:52:16.291Z,31.60
2018-03-24T21:54:45.008Z,28.85
2018-03-24T21:57:13.673Z,35.57
2018-03-24T21:59:42.126Z,30.53
2018-03-24T22:02:11.399Z,29.77
2018-03-24T22:04:39.960Z,32.77
2018-03-24T22:07:08.621Z,32.78
2018-03-24T22:09:37.297Z,31.73
2018-03-24T22:12:06.491Z,35.73
2018-03-24T22:14:34.875Z,36.33
2018-03-24T22:17:03.273Z,32.97
2018-03-24T22:19:32.419Z,36.20
2018-03-24T22:22:01.071Z,37.33
2018-03-24T22:24:29.733Z,31.83
2018-03-24T22:26:58.912Z,35.17
2018-03-24T22:29:27.457Z,37.03
2018-03-24T22:31:55.851Z,36.20
2018-03-24T22:34:25.255Z,36.63
2018-03-24T22:36:53.831Z,34.07
2018-03-24T22:39:22.487Z,34.95
2018-03-24T22:41:52.123Z,32.55
2018-03-24T22:44:20.779Z,35.10
2018-03-24T22:46:49.175Z,33.10
2018-03-24T22:49:17.687Z,39.37
2018-03-24T22:51:46.274Z,35.93
2018-03-24T22:54:14.666Z,34.73
2018-03-24T22:56:43.817Z,29.87
2018-03-24T22:59:12.202Z,29.43
2018-03-24T23:01:40.799Z,33.80
2018-03-24T23:04:09.202Z,41.83
2018-03-24T23:06:38.484Z,35.53
2018-03-24T23:09:07.202Z,32.97
2018-03-24T23:11:35.642Z,36.80
2018-03-24T23:14:05.219Z,33.50
2018-03-24T23:16:33.810Z,38.30
2018-03-24T23:19:02.282Z,34.37
2018-03-24T23:21:30.958Z,35.67
2018-03-24T23:23:59.357Z,39.10
2018-03-24T23:26:28.557Z,36.70
2018-03-24T23:28:57.232Z,34.20
2018-03-24T23:31:25.601Z,31.80
2018-03-24T23:33:55.033Z,41.50
2018-03-24T23:36:23.779Z,34.58
2018-03-24T23:38:53.205Z,41.22
2018-03-24T23:41:21.853Z,36.28
2018-03-24T23:43:50.551Z,40.72
2018-03-24T23:46:18.940Z,35.23
2018-03-24T23:48:47.333Z,42.67
2018-03-24T23:51:15.993Z,42.40
2018-03-24T23:53:44.360Z,38.00
2018-03-24T23:56:13.794Z,42.43
2018-03-24T23:58:42.559Z,39.80
